Forside
METAR-TAF:

METAR-TAF

Lufthavne :

Kuwait City, Kuwait

Breddekreds: 29-13N, længdekreds: 047-59E, højde: 55 m

Aktuelle vejr

Denne rapport blev lavet for 21 minutter siden, kl. 14:00 UTC
Vind 6 kt fra nord
Temperatur 18°C
Fugtighed 68%
Tryk 1022 hPa
Sigt: 6000 m

METAR: OKBK 191400Z 35006KT 6000 NSC 18/12 Q1022 NOSIG

Tid: 17:21 (14:21 UTC)

Vejrudsigter

Denne rapport blev lavet for 3 timer og 36 minutter siden, kl. 10:45 UTC
Foreløbig gælder fra 19 på 12 UTC til 20 på 18 UTC
Vind 10 kt fra nordnordvest
Sigt: 7000 m
skyfri
Midlertidig
fra 19 på 21 UTC til 20 på 05 UTC
Vind 3 kt fra varierende retninger
Sigt: 3000 m
dis

TAF: OKBK 191045Z 1912/2018 34010KT 7000 SKC TEMPO 1921/2005 VRB03KT 3000 BR

Vejrobservationer og prognoser fra mere end 4000 lufthavne (METAR og TAF).

De gule og røde prikker repræsenterer de meteorologiske stationer.

Flyt musen over at se navnet på stationen.

Så klik over at se vejr observationer og prognoser.

At skifte det kort: Klik på de grønne knapper med et sort kors for at zoome ind; på den grønne knap med en bindestreg for at zoome ud; eller på de grønne pile for tilstødende kort.


METAR-TAF: